createdAt,value
2024-03-08T00:00:14.804Z,76.97
2024-03-08T00:03:03.870Z,72.30
2024-03-08T00:05:31.204Z,81.63
2024-03-08T00:07:58.522Z,68.63
2024-03-08T00:10:28.305Z,65.90
2024-03-08T00:12:56.146Z,69.57
2024-03-08T00:15:24.336Z,69.50
2024-03-08T00:17:51.665Z,70.50
2024-03-08T00:20:21.616Z,74.57
2024-03-08T00:22:48.856Z,64.57
2024-03-08T00:25:16.101Z,67.93
2024-03-08T00:27:43.467Z,82.40
2024-03-08T00:30:12.163Z,96.57
2024-03-08T00:32:39.783Z,90.87
2024-03-08T00:35:09.529Z,76.70
2024-03-08T00:37:37.031Z,85.13
2024-03-08T00:40:04.348Z,94.40
2024-03-08T00:42:31.473Z,99.87
2024-03-08T00:44:59.360Z,96.97
2024-03-08T00:47:27.497Z,98.70
2024-03-08T00:49:54.571Z,170.53
2024-03-08T00:52:22.222Z,140.63
2024-03-08T00:54:51.996Z,123.13
2024-03-08T00:57:19.237Z,101.33
2024-03-08T00:59:46.616Z,100.27
2024-03-08T01:02:13.839Z,97.47
2024-03-08T01:04:40.638Z,98.50
2024-03-08T01:07:07.824Z,100.93
2024-03-08T01:09:34.634Z,91.87
2024-03-08T01:12:02.553Z,99.07
2024-03-08T01:14:32.387Z,95.47
2024-03-08T01:17:00.415Z,97.13
2024-03-08T01:19:27.447Z,102.27
2024-03-08T01:21:56.977Z,92.93
2024-03-08T01:24:24.252Z,95.27
2024-03-08T01:26:51.588Z,89.57
2024-03-08T01:29:18.589Z,82.03
2024-03-08T01:31:45.987Z,90.57
2024-03-08T01:34:12.933Z,92.87
2024-03-08T01:36:40.022Z,89.10
2024-03-08T01:39:09.610Z,84.40
2024-03-08T01:41:37.590Z,80.27
2024-03-08T01:44:04.881Z,80.30
2024-03-08T01:46:32.675Z,83.57
2024-03-08T01:49:01.936Z,94.63
2024-03-08T01:51:30.512Z,82.53
2024-03-08T01:53:58.998Z,86.33
2024-03-08T01:56:26.704Z,79.33
2024-03-08T01:58:53.986Z,85.57
2024-03-08T02:01:21.360Z,84.43
2024-03-08T02:03:48.330Z,86.20
2024-03-08T02:06:17.525Z,96.67
2024-03-08T02:08:46.211Z,96.20
2024-03-08T02:11:13.984Z,86.23
2024-03-08T02:13:40.945Z,93.43
2024-03-08T02:16:09.566Z,86.53
2024-03-08T02:18:36.939Z,89.27
2024-03-08T02:21:05.428Z,83.87
2024-03-08T02:23:33.375Z,97.03
2024-03-08T02:26:00.773Z,84.90
2024-03-08T02:28:27.626Z,84.07
2024-03-08T02:30:57.229Z,78.70
2024-03-08T02:33:25.525Z,88.20
2024-03-08T02:35:53.008Z,92.93
2024-03-08T02:38:21.385Z,88.23
2024-03-08T02:40:49.956Z,86.57
2024-03-08T02:43:18.754Z,83.77
2024-03-08T02:45:48.798Z,91.43
2024-03-08T02:48:17.536Z,92.73
2024-03-08T02:50:46.100Z,89.13
2024-03-08T02:53:13.825Z,85.17
2024-03-08T02:55:42.363Z,85.90
2024-03-08T02:58:11.637Z,84.10
2024-03-08T03:00:40.582Z,98.13
2024-03-08T03:03:08.977Z,78.97
2024-03-08T03:05:36.642Z,82.50
2024-03-08T03:08:05.338Z,80.97
2024-03-08T03:10:32.608Z,78.80
2024-03-08T03:12:59.510Z,79.07
2024-03-08T03:15:28.289Z,71.80
2024-03-08T03:17:56.632Z,78.43
2024-03-08T03:20:27.823Z,78.80
2024-03-08T03:22:55.147Z,102.07
2024-03-08T03:25:26.720Z,105.27
2024-03-08T03:27:57.679Z,90.40
2024-03-08T03:30:27.929Z,89.17
2024-03-08T03:32:56.168Z,88.23
2024-03-08T03:35:23.906Z,96.53
2024-03-08T03:38:07.552Z,101.63
2024-03-08T03:40:35.420Z,85.60
2024-03-08T03:43:04.072Z,94.33
2024-03-08T03:45:34.915Z,82.73
2024-03-08T03:48:10.560Z,84.67
2024-03-08T03:50:38.563Z,86.43
2024-03-08T03:53:10.510Z,81.40
2024-03-08T03:55:40.839Z,87.10
2024-03-08T03:58:11.448Z,90.53
2024-03-08T04:00:39.634Z,84.87
2024-03-08T04:03:07.406Z,105.07
2024-03-08T04:05:35.819Z,85.47
2024-03-08T04:08:04.074Z,96.37
2024-03-08T04:10:31.379Z,103.07
2024-03-08T04:12:58.559Z,94.97
2024-03-08T04:15:26.113Z,96.40
2024-03-08T04:17:53.913Z,91.50
2024-03-08T04:20:22.637Z,93.83
2024-03-08T04:22:50.938Z,85.97
2024-03-08T04:25:18.737Z,80.03
2024-03-08T04:27:46.806Z,79.60
2024-03-08T04:30:14.334Z,93.50
2024-03-08T04:32:42.702Z,91.70
2024-03-08T04:35:10.113Z,75.63
2024-03-08T04:37:37.554Z,93.17
2024-03-08T04:40:05.175Z,89.00
2024-03-08T04:42:34.091Z,86.33
2024-03-08T04:45:01.566Z,87.70
2024-03-08T04:47:28.841Z,100.57
2024-03-08T04:49:57.484Z,124.30
2024-03-08T04:52:24.616Z,118.67
2024-03-08T04:54:51.812Z,84.53
2024-03-08T04:57:20.142Z,80.17
2024-03-08T04:59:47.859Z,84.83
2024-03-08T05:02:14.880Z,85.73
2024-03-08T05:04:43.685Z,96.10
2024-03-08T05:07:11.152Z,77.33
2024-03-08T05:09:39.017Z,92.80
2024-03-08T05:12:06.310Z,82.20
2024-03-08T05:14:33.615Z,87.33
2024-03-08T05:17:01.512Z,86.13
2024-03-08T05:19:34.404Z,74.03
2024-03-08T05:22:02.079Z,97.07
2024-03-08T05:24:31.037Z,99.40
2024-03-08T05:26:57.989Z,90.10
2024-03-08T05:29:25.373Z,86.33
2024-03-08T05:31:56.026Z,103.60
2024-03-08T05:34:23.850Z,85.10
2024-03-08T05:36:52.041Z,92.57
2024-03-08T05:39:20.025Z,98.50
2024-03-08T05:41:49.810Z,96.70
2024-03-08T05:44:19.941Z,90.07
2024-03-08T05:46:49.384Z,88.07
2024-03-08T05:49:16.573Z,116.97
2024-03-08T05:51:44.048Z,142.67
2024-03-08T05:54:14.593Z,91.40
2024-03-08T05:56:44.499Z,121.50
2024-03-08T05:59:12.556Z,107.77
2024-03-08T06:01:41.948Z,114.70
2024-03-08T06:04:09.674Z,91.77
2024-03-08T06:06:38.888Z,95.83
2024-03-08T06:09:19.177Z,96.83
2024-03-08T06:11:46.445Z,96.23
2024-03-08T06:14:13.799Z,92.20
2024-03-08T06:16:40.640Z,88.30
2024-03-08T06:19:07.873Z,92.63
2024-03-08T06:21:34.743Z,80.50
2024-03-08T06:24:02.378Z,93.90
2024-03-08T06:26:30.836Z,89.03
2024-03-08T06:28:58.908Z,92.20
2024-03-08T06:31:25.931Z,108.73
2024-03-08T06:33:56.234Z,82.67
2024-03-08T06:36:23.978Z,95.87
2024-03-08T06:38:51.595Z,91.60
2024-03-08T06:41:18.537Z,77.80
2024-03-08T06:43:46.793Z,81.27
2024-03-08T06:46:14.104Z,83.10
2024-03-08T06:48:41.465Z,82.30
2024-03-08T06:51:08.906Z,76.07
2024-03-08T06:53:36.410Z,79.90
2024-03-08T06:56:03.590Z,85.90
2024-03-08T06:58:30.732Z,78.33
2024-03-08T07:01:02.046Z,80.00
2024-03-08T07:03:30.821Z,82.10
2024-03-08T07:06:02.836Z,74.60
2024-03-08T07:08:31.213Z,74.97
2024-03-08T07:10:59.729Z,73.90
2024-03-08T07:13:29.982Z,76.20
2024-03-08T07:15:57.176Z,73.23
2024-03-08T07:18:24.695Z,73.00
2024-03-08T07:20:51.870Z,74.13
2024-03-08T07:23:38.220Z,66.73
2024-03-08T07:26:05.428Z,73.93
2024-03-08T07:28:32.549Z,55.53
2024-03-08T07:31:14.240Z,70.83
2024-03-08T07:33:41.572Z,72.20
2024-03-08T07:36:09.598Z,73.63
2024-03-08T07:38:36.916Z,63.23
2024-03-08T07:41:05.813Z,64.07
2024-03-08T07:43:34.261Z,66.33
2024-03-08T07:46:01.275Z,77.40
2024-03-08T07:48:28.628Z,70.57
2024-03-08T07:50:55.616Z,125.03
2024-03-08T07:53:22.903Z,59.20
2024-03-08T07:55:49.723Z,63.93
2024-03-08T07:58:18.625Z,52.93
2024-03-08T08:00:45.507Z,61.77
2024-03-08T08:03:13.989Z,54.33
2024-03-08T08:05:40.927Z,56.43
2024-03-08T08:08:12.222Z,56.13
2024-03-08T08:10:39.752Z,61.37
2024-03-08T08:13:07.071Z,47.03
2024-03-08T08:15:35.598Z,48.60
2024-03-08T08:18:07.000Z,50.40
2024-03-08T08:20:34.530Z,45.90
2024-03-08T08:23:01.669Z,41.37
2024-03-08T08:25:28.798Z,39.93
2024-03-08T08:27:55.962Z,43.37
2024-03-08T08:30:23.058Z,46.83
2024-03-08T08:32:50.636Z,41.10
2024-03-08T08:35:19.549Z,40.07
2024-03-08T08:37:47.007Z,40.20
2024-03-08T08:40:19.233Z,36.93
2024-03-08T08:42:50.482Z,33.03
2024-03-08T08:45:23.171Z,33.63
2024-03-08T08:47:53.390Z,37.47
2024-03-08T08:50:26.889Z,34.23
2024-03-08T08:52:54.815Z,34.77
2024-03-08T08:55:22.868Z,46.93
2024-03-08T08:57:50.467Z,34.60
2024-03-08T09:00:17.760Z,31.57
2024-03-08T09:02:44.812Z,32.37
2024-03-08T09:05:17.886Z,24.47
2024-03-08T09:07:48.428Z,32.20
2024-03-08T09:10:17.710Z,42.50
2024-03-08T09:12:45.910Z,43.87
2024-03-08T09:15:13.667Z,25.03
2024-03-08T09:17:41.910Z,22.23
2024-03-08T09:20:10.176Z,23.57
2024-03-08T09:22:37.270Z,24.07
2024-03-08T09:25:07.014Z,27.37
2024-03-08T09:27:37.687Z,20.93
2024-03-08T09:30:08.399Z,19.83
2024-03-08T09:32:35.624Z,25.73
2024-03-08T09:35:03.046Z,29.20
2024-03-08T09:37:30.177Z,23.77
2024-03-08T09:39:58.636Z,23.60
2024-03-08T09:42:25.487Z,17.07
2024-03-08T09:44:52.658Z,19.00
2024-03-08T09:47:19.569Z,15.93
2024-03-08T09:49:47.364Z,17.43
2024-03-08T09:52:14.539Z,21.37
2024-03-08T09:54:44.270Z,20.23
2024-03-08T09:57:11.624Z,16.70
2024-03-08T09:59:38.749Z,18.83
2024-03-08T10:02:06.324Z,16.10
2024-03-08T10:04:34.107Z,36.03
2024-03-08T10:07:02.633Z,27.00
2024-03-08T10:09:31.454Z,16.97
2024-03-08T10:11:59.066Z,19.70
2024-03-08T10:14:29.633Z,23.47
2024-03-08T10:17:01.128Z,30.90
2024-03-08T10:19:31.290Z,17.97
2024-03-08T10:22:00.163Z,18.00
2024-03-08T10:24:27.710Z,17.77
2024-03-08T10:26:55.629Z,21.30
2024-03-08T10:29:23.176Z,21.17
2024-03-08T10:31:51.309Z,19.70
2024-03-08T10:34:18.557Z,19.57
2024-03-08T10:36:45.396Z,23.00
2024-03-08T10:39:25.593Z,25.13
2024-03-08T10:41:58.816Z,20.63
2024-03-08T10:44:32.350Z,21.30
2024-03-08T10:47:20.360Z,16.37
2024-03-08T10:50:14.338Z,19.10
2024-03-08T10:52:41.607Z,16.60
2024-03-08T10:55:13.798Z,24.80
2024-03-08T10:57:42.593Z,20.97
2024-03-08T11:00:12.669Z,17.60
2024-03-08T11:02:39.552Z,19.77
2024-03-08T11:05:14.088Z,19.80
2024-03-08T11:07:44.190Z,21.70
2024-03-08T11:10:21.443Z,21.77
2024-03-08T11:12:49.537Z,19.45
2024-03-08T11:15:20.089Z,20.07
2024-03-08T11:17:49.347Z,19.33
2024-03-08T11:20:19.005Z,20.57
2024-03-08T11:22:57.084Z,18.30
2024-03-08T11:25:46.953Z,19.77
2024-03-08T11:28:22.059Z,21.50
2024-03-08T11:31:01.587Z,16.63
2024-03-08T11:33:30.022Z,21.77
2024-03-08T11:36:06.834Z,18.33
2024-03-08T11:38:41.822Z,14.17
2024-03-08T11:41:09.415Z,15.20
2024-03-08T11:43:36.809Z,19.43
2024-03-08T11:46:10.816Z,15.07
2024-03-08T11:48:37.643Z,16.25
2024-03-08T11:51:06.072Z,19.50
2024-03-08T11:53:32.995Z,17.15
2024-03-08T11:56:13.523Z,17.80
2024-03-08T11:58:41.554Z,15.30
2024-03-08T12:01:13.484Z,16.30
2024-03-08T12:03:44.097Z,15.53
2024-03-08T12:06:17.036Z,18.20
2024-03-08T12:08:43.963Z,17.88
2024-03-08T12:11:11.526Z,16.55
2024-03-08T12:13:38.929Z,12.32
2024-03-08T12:16:06.481Z,15.85
2024-03-08T12:18:39.146Z,16.50
2024-03-08T12:21:10.271Z,14.55
2024-03-08T12:23:38.116Z,15.00
2024-03-08T12:26:16.954Z,14.85
2024-03-08T12:28:48.374Z,15.77
2024-03-08T12:31:18.502Z,17.63
2024-03-08T12:33:57.099Z,16.85
2024-03-08T12:36:25.136Z,13.82
2024-03-08T12:38:52.434Z,15.38
2024-03-08T12:41:21.048Z,15.35
2024-03-08T12:43:51.295Z,14.37
2024-03-08T12:46:21.318Z,15.33
2024-03-08T12:48:48.663Z,13.50
2024-03-08T12:51:19.845Z,14.98
2024-03-08T12:53:51.814Z,14.68
2024-03-08T12:56:30.870Z,16.48
2024-03-08T12:58:58.036Z,12.70
2024-03-08T13:01:25.405Z,14.85
2024-03-08T13:03:52.360Z,19.30
2024-03-08T13:06:25.874Z,13.65
2024-03-08T13:08:53.468Z,17.13
2024-03-08T13:11:21.344Z,14.65
2024-03-08T13:13:48.555Z,21.38
2024-03-08T13:16:18.556Z,33.40
2024-03-08T13:18:46.620Z,12.63
2024-03-08T13:21:15.114Z,13.73
2024-03-08T13:23:46.411Z,13.45
2024-03-08T13:26:17.401Z,17.17
2024-03-08T13:28:47.443Z,12.98
2024-03-08T13:31:16.067Z,16.88
2024-03-08T13:33:43.473Z,15.75
2024-03-08T13:36:16.151Z,16.92
2024-03-08T13:38:44.673Z,20.17
2024-03-08T13:41:21.652Z,17.33
2024-03-08T13:43:51.820Z,15.32
2024-03-08T13:46:19.089Z,18.00
2024-03-08T13:48:45.979Z,18.23
2024-03-08T13:51:16.616Z,18.23
2024-03-08T13:53:43.687Z,13.10
2024-03-08T13:56:11.868Z,12.68
2024-03-08T13:58:41.340Z,16.58
2024-03-08T14:01:13.097Z,15.40
2024-03-08T14:03:43.917Z,16.20
2024-03-08T14:08:54.572Z,17.08
2024-03-08T14:11:21.594Z,17.88
2024-03-08T14:13:49.037Z,22.98
2024-03-08T14:16:16.711Z,20.17
2024-03-08T14:18:44.243Z,18.00
2024-03-08T14:21:11.782Z,69.15
2024-03-08T14:23:43.999Z,20.75
2024-03-08T14:26:11.118Z,16.95
2024-03-08T14:28:40.279Z,21.77
2024-03-08T14:31:12.138Z,21.33
2024-03-08T14:33:40.145Z,17.42
2024-03-08T14:36:07.582Z,15.88
2024-03-08T14:38:36.229Z,50.78
2024-03-08T14:41:05.487Z,29.67
2024-03-08T14:43:33.361Z,27.33
2024-03-08T14:46:00.601Z,15.68
2024-03-08T14:48:28.395Z,16.80
2024-03-08T14:50:55.350Z,17.60
2024-03-08T14:53:22.726Z,22.33
2024-03-08T14:55:49.733Z,22.38
2024-03-08T14:58:17.072Z,21.38
2024-03-08T15:00:45.032Z,17.02
2024-03-08T15:03:18.108Z,27.45
2024-03-08T15:05:49.245Z,17.30
2024-03-08T15:08:21.337Z,17.05
2024-03-08T15:10:52.852Z,18.00
2024-03-08T15:13:24.297Z,27.98
2024-03-08T15:15:58.477Z,68.72
2024-03-08T15:18:27.449Z,42.13
2024-03-08T15:20:54.540Z,24.52
2024-03-08T15:23:21.925Z,24.23
2024-03-08T15:25:50.389Z,24.23
2024-03-08T15:28:21.259Z,36.55
2024-03-08T15:30:52.711Z,33.05
2024-03-08T15:33:25.567Z,29.48
2024-03-08T15:35:58.847Z,39.20
2024-03-08T15:38:28.761Z,36.60
2024-03-08T15:40:56.082Z,37.65
2024-03-08T15:43:23.538Z,53.63
2024-03-08T15:45:51.060Z,61.97
2024-03-08T15:48:18.328Z,73.70
2024-03-08T15:50:45.352Z,24.42
2024-03-08T15:53:16.635Z,23.45
2024-03-08T15:55:45.532Z,32.80
2024-03-08T15:58:14.400Z,51.83
2024-03-08T16:00:47.763Z,56.42
2024-03-08T16:03:16.200Z,48.05
2024-03-08T16:05:45.165Z,58.35
2024-03-08T16:08:16.931Z,60.67
2024-03-08T16:10:51.022Z,41.78
2024-03-08T16:13:19.424Z,36.03
2024-03-08T16:15:48.179Z,22.85
2024-03-08T16:18:17.702Z,18.70
2024-03-08T16:20:50.538Z,27.50
2024-03-08T16:23:17.773Z,33.83
2024-03-08T16:25:45.120Z,25.42
2024-03-08T16:28:13.266Z,24.25
2024-03-08T16:30:43.267Z,16.27
2024-03-08T16:33:10.878Z,28.50
2024-03-08T16:35:40.052Z,19.10
2024-03-08T16:38:08.705Z,21.73
2024-03-08T16:40:37.443Z,22.73
2024-03-08T16:43:04.865Z,23.27
2024-03-08T16:45:31.776Z,40.10
2024-03-08T16:48:00.224Z,34.97
2024-03-08T16:50:28.240Z,39.67
2024-03-08T16:52:57.836Z,32.10
2024-03-08T16:55:27.274Z,31.57
2024-03-08T16:57:54.769Z,29.00
2024-03-08T17:00:23.542Z,33.13
2024-03-08T17:02:51.101Z,46.10
2024-03-08T17:05:18.127Z,20.13
2024-03-08T17:07:49.919Z,27.77
2024-03-08T17:10:20.340Z,22.90
2024-03-08T17:12:50.852Z,18.93
2024-03-08T17:15:24.187Z,30.20
2024-03-08T17:17:57.471Z,58.10
2024-03-08T17:20:25.785Z,28.93
2024-03-08T17:22:55.336Z,64.90
2024-03-08T17:25:25.292Z,56.90
2024-03-08T17:27:56.852Z,46.30
2024-03-08T17:30:25.158Z,46.53
2024-03-08T17:33:00.289Z,58.77
2024-03-08T17:35:29.709Z,69.47
2024-03-08T17:37:58.043Z,38.43
2024-03-08T17:40:52.497Z,56.20
2024-03-08T17:43:24.330Z,32.90
2024-03-08T17:45:54.214Z,35.47
2024-03-08T17:48:22.228Z,36.67
2024-03-08T17:50:55.191Z,30.63
2024-03-08T17:53:22.625Z,36.77
2024-03-08T17:55:52.391Z,35.87
2024-03-08T17:58:21.304Z,37.37
2024-03-08T18:00:52.475Z,24.93
2024-03-08T18:03:20.824Z,27.50
2024-03-08T18:05:48.760Z,28.20
2024-03-08T18:08:19.412Z,29.27
2024-03-08T18:10:49.825Z,27.73
2024-03-08T18:13:17.729Z,31.93
2024-03-08T18:15:47.678Z,31.83
2024-03-08T18:18:15.661Z,34.63
2024-03-08T18:20:46.227Z,27.77
2024-03-08T18:23:14.652Z,32.90
2024-03-08T18:25:42.325Z,34.00
2024-03-08T18:28:10.531Z,30.13
2024-03-08T18:30:38.111Z,32.00
2024-03-08T18:33:06.103Z,38.13
2024-03-08T18:35:32.998Z,40.80
2024-03-08T18:38:00.359Z,43.10
2024-03-08T18:40:27.561Z,45.03
2024-03-08T18:42:55.294Z,24.27
2024-03-08T18:45:23.564Z,31.97
2024-03-08T18:47:52.575Z,37.30
2024-03-08T18:50:21.687Z,52.87
2024-03-08T18:52:49.696Z,50.43
2024-03-08T18:55:22.547Z,44.53
2024-03-08T18:57:50.039Z,50.87
2024-03-08T19:00:50.937Z,71.17
2024-03-08T19:03:19.037Z,38.83
2024-03-08T19:05:50.553Z,27.43
2024-03-08T19:08:20.711Z,55.97
2024-03-08T19:10:48.777Z,31.90
2024-03-08T19:13:17.696Z,28.07
2024-03-08T19:15:46.689Z,28.20
2024-03-08T19:18:15.056Z,29.13
2024-03-08T19:20:42.434Z,27.20
2024-03-08T19:23:11.054Z,23.87
2024-03-08T19:25:42.591Z,32.37
2024-03-08T19:28:14.164Z,25.13
2024-03-08T19:30:41.717Z,36.73
2024-03-08T19:33:09.243Z,40.20
2024-03-08T19:35:37.158Z,36.27
2024-03-08T19:38:04.951Z,33.03
2024-03-08T19:40:36.066Z,35.03
2024-03-08T19:43:07.018Z,42.10
2024-03-08T19:45:34.303Z,29.40
2024-03-08T19:48:05.144Z,38.23
2024-03-08T19:50:33.926Z,39.33
2024-03-08T19:53:08.928Z,55.00
2024-03-08T19:55:37.581Z,77.67
2024-03-08T19:58:05.579Z,106.47
2024-03-08T20:00:35.920Z,106.47
2024-03-08T20:03:05.806Z,57.37
2024-03-08T20:05:35.744Z,45.80
2024-03-08T20:08:09.494Z,44.33
2024-03-08T20:10:38.227Z,44.33
2024-03-08T20:13:09.234Z,77.23
2024-03-08T20:15:41.482Z,52.43
2024-03-08T20:18:10.455Z,41.37
2024-03-08T20:20:38.462Z,30.10
2024-03-08T20:23:06.511Z,50.27
2024-03-08T20:25:37.180Z,77.33
2024-03-08T20:28:06.607Z,56.20
2024-03-08T20:30:33.760Z,46.63
2024-03-08T20:33:05.500Z,43.90
2024-03-08T20:35:37.042Z,49.43
2024-03-08T20:38:07.770Z,75.10
2024-03-08T20:40:43.389Z,52.60
2024-03-08T20:43:16.432Z,44.43
2024-03-08T20:45:45.074Z,32.57
2024-03-08T20:48:15.911Z,37.77
2024-03-08T20:50:43.874Z,35.47
2024-03-08T20:53:13.383Z,34.50
2024-03-08T20:55:41.465Z,40.20
2024-03-08T20:58:09.034Z,35.50
2024-03-08T21:00:41.263Z,38.80
2024-03-08T21:03:20.410Z,36.63
2024-03-08T21:05:51.503Z,48.97
2024-03-08T21:08:28.930Z,82.13
2024-03-08T21:10:56.910Z,180.03
2024-03-08T21:13:26.663Z,87.83
2024-03-08T21:15:54.408Z,55.47
2024-03-08T21:18:22.598Z,43.20
2024-03-08T21:20:50.061Z,57.13
2024-03-08T21:23:17.369Z,62.93
2024-03-08T21:25:44.708Z,36.80
2024-03-08T21:28:12.535Z,43.17
2024-03-08T21:30:40.602Z,53.57
2024-03-08T21:33:12.164Z,57.83
2024-03-08T21:35:40.594Z,56.23
2024-03-08T21:38:08.709Z,81.63
2024-03-08T21:40:52.965Z,87.60
2024-03-08T21:43:28.388Z,89.90
2024-03-08T21:45:55.744Z,65.27
2024-03-08T21:48:23.250Z,57.90
2024-03-08T21:50:51.229Z,77.37
2024-03-08T21:53:26.456Z,40.07
2024-03-08T21:55:58.206Z,75.27
2024-03-08T21:58:25.594Z,80.23
2024-03-08T22:00:53.832Z,94.50
2024-03-08T22:03:23.524Z,113.70
2024-03-08T22:05:51.642Z,185.17
2024-03-08T22:08:20.961Z,135.87
2024-03-08T22:10:48.175Z,83.47
2024-03-08T22:13:16.165Z,49.10
2024-03-08T22:15:46.163Z,264.70
2024-03-08T22:18:13.482Z,351.60
2024-03-08T22:20:40.976Z,313.27
2024-03-08T22:23:08.563Z,254.93
2024-03-08T22:25:37.698Z,149.53
2024-03-08T22:28:05.474Z,272.47
2024-03-08T22:30:32.630Z,154.30
2024-03-08T22:32:59.850Z,680.00
2024-03-08T22:35:29.113Z,500.77
2024-03-08T22:37:56.387Z,293.33
2024-03-08T22:40:25.962Z,296.90
2024-03-08T22:42:54.154Z,219.70
2024-03-08T22:45:21.320Z,50.23
2024-03-08T22:47:48.711Z,125.37
2024-03-08T22:50:17.517Z,97.03
2024-03-08T22:52:46.228Z,79.10
2024-03-08T22:55:20.226Z,110.73
2024-03-08T22:57:49.655Z,170.87
2024-03-08T23:00:27.512Z,122.43
2024-03-08T23:02:57.653Z,79.73
2024-03-08T23:05:28.340Z,75.57
2024-03-08T23:08:00.864Z,60.30
2024-03-08T23:10:28.977Z,167.47
2024-03-08T23:12:57.491Z,156.33
2024-03-08T23:15:29.176Z,198.53
2024-03-08T23:17:57.318Z,63.57
2024-03-08T23:20:33.029Z,57.47
2024-03-08T23:23:05.375Z,61.20
2024-03-08T23:25:33.797Z,81.17
2024-03-08T23:28:01.742Z,87.77
2024-03-08T23:30:29.530Z,100.07
2024-03-08T23:32:56.903Z,71.00
2024-03-08T23:35:23.816Z,319.03
2024-03-08T23:37:51.749Z,211.23
2024-03-08T23:40:20.194Z,168.53
2024-03-08T23:42:48.621Z,157.10
2024-03-08T23:45:21.607Z,289.57
2024-03-08T23:47:56.634Z,134.07
2024-03-08T23:50:31.098Z,91.83
2024-03-08T23:53:01.273Z,58.70
2024-03-08T23:55:34.080Z,61.17
2024-03-08T23:58:11.024Z,67.07
